KRBD/RBD METAR and TAF weather

Enter ICAO airport designator
Station Type Date Time Source
KRBD METAR 2021/04/14 19:53 UTC NOAA

KRBD 141953Z 08008KT 10SM BKN031 23/14 A2999 RMK AO2 SLP150 T02330139


Station Type Date Time Source
KRBD Decoded METAR 2021/04/14 19:53 UTC NOAA

DALLAS EXECUTIVE AIRPORT, TX, United States (KRBD) 32-41N 096-52W 203M
Apr 14, 2021 - 03:53 PM EDT / 2021.04.14 1953 UTC
Wind: from the E (080 degrees) at 9 MPH (8 KT):0
Visibility: 10 mile(s):0
Sky conditions: mostly cloudy
Temperature: 73.9 F (23.3 C)
Dew Point: 57.0 F (13.9 C)
Relative Humidity: 55%
Pressure (altimeter): 29.99 in. Hg (1015 hPa)
ob: KRBD 141953Z 08008KT 10SM BKN031 23/14 A2999 RMK AO2 SLP150 T02330139
cycle: 20

Station Type Date Time Source
KRBD TAF UTC NOAA

Error!

Example: see airport list